sensor_id;sensor_type;location;lat;lon;timestamp;P1;durP1;ratioP1;P2;durP2;ratioP2
3052;SDS011;1536;51.098;6.414;2024-03-23T00:54:27;10.10;;;4.68;;
3052;SDS011;1536;51.098;6.414;2024-03-23T00:56:53;15.57;;;5.28;;
3052;SDS011;1536;51.098;6.414;2024-03-23T00:59:20;9.43;;;5.30;;
3052;SDS011;1536;51.098;6.414;2024-03-23T01:01:48;14.68;;;5.07;;
3052;SDS011;1536;51.098;6.414;2024-03-23T01:04:15;12.85;;;4.05;;
3052;SDS011;1536;51.098;6.414;2024-03-23T01:06:41;15.00;;;4.67;;
3052;SDS011;1536;51.098;6.414;2024-03-23T01:09:08;11.68;;;4.72;;
3052;SDS011;1536;51.098;6.414;2024-03-23T01:11:36;11.15;;;3.88;;
3052;SDS011;1536;51.098;6.414;2024-03-23T01:14:03;10.43;;;4.55;;
3052;SDS011;1536;51.098;6.414;2024-03-23T01:16:28;7.28;;;3.85;;
3052;SDS011;1536;51.098;6.414;2024-03-23T01:18:57;15.35;;;4.15;;
3052;SDS011;1536;51.098;6.414;2024-03-23T01:21:23;9.88;;;4.25;;
3052;SDS011;1536;51.098;6.414;2024-03-23T01:23:49;11.38;;;4.05;;
3052;SDS011;1536;51.098;6.414;2024-03-23T01:26:15;8.03;;;3.53;;
3052;SDS011;1536;51.098;6.414;2024-03-23T01:28:42;8.52;;;2.80;;
3052;SDS011;1536;51.098;6.414;2024-03-23T01:31:08;8.00;;;3.50;;
3052;SDS011;1536;51.098;6.414;2024-03-23T01:33:35;8.38;;;3.50;;
3052;SDS011;1536;51.098;6.414;2024-03-23T01:36:02;14.43;;;3.83;;
3052;SDS011;1536;51.098;6.414;2024-03-23T01:38:30;7.85;;;3.05;;
3052;SDS011;1536;51.098;6.414;2024-03-23T01:40:56;6.35;;;3.50;;
3052;SDS011;1536;51.098;6.414;2024-03-23T01:43:23;8.82;;;3.20;;
3052;SDS011;1536;51.098;6.414;2024-03-23T01:46:01;9.52;;;3.30;;
3052;SDS011;1536;51.098;6.414;2024-03-23T01:48:28;9.32;;;2.95;;
3052;SDS011;1536;51.098;6.414;2024-03-23T01:50:54;6.60;;;3.70;;
3052;SDS011;1536;51.098;6.414;2024-03-23T01:53:21;8.95;;;2.85;;
3052;SDS011;1536;51.098;6.414;2024-03-23T01:55:48;14.55;;;3.35;;
3052;SDS011;1536;51.098;6.414;2024-03-23T01:58:16;7.75;;;3.08;;
3052;SDS011;1536;51.098;6.414;2024-03-23T02:00:42;7.90;;;3.90;;
3052;SDS011;1536;51.098;6.414;2024-03-23T02:03:26;8.68;;;3.00;;
3052;SDS011;1536;51.098;6.414;2024-03-23T02:05:53;7.05;;;2.88;;
3052;SDS011;1536;51.098;6.414;2024-03-23T02:08:21;8.85;;;3.20;;
3052;SDS011;1536;51.098;6.414;2024-03-23T02:10:47;6.22;;;2.72;;
3052;SDS011;1536;51.098;6.414;2024-03-23T02:13:15;6.20;;;2.88;;
3052;SDS011;1536;51.098;6.414;2024-03-23T02:15:42;12.07;;;2.78;;
3052;SDS011;1536;51.098;6.414;2024-03-23T02:18:09;9.95;;;3.30;;
3052;SDS011;1536;51.098;6.414;2024-03-23T02:20:37;12.43;;;3.10;;
3052;SDS011;1536;51.098;6.414;2024-03-23T02:23:06;5.82;;;3.25;;
3052;SDS011;1536;51.098;6.414;2024-03-23T02:25:38;5.90;;;2.75;;
3052;SDS011;1536;51.098;6.414;2024-03-23T02:28:05;5.07;;;3.00;;
3052;SDS011;1536;51.098;6.414;2024-03-23T02:30:31;8.85;;;3.33;;
3052;SDS011;1536;51.098;6.414;2024-03-23T02:32:57;5.53;;;2.50;;
3052;SDS011;1536;51.098;6.414;2024-03-23T02:35:23;13.27;;;3.47;;
3052;SDS011;1536;51.098;6.414;2024-03-23T02:37:50;3.75;;;2.63;;
3052;SDS011;1536;51.098;6.414;2024-03-23T02:40:17;6.13;;;2.50;;
3052;SDS011;1536;51.098;6.414;2024-03-23T02:42:45;7.68;;;3.00;;
3052;SDS011;1536;51.098;6.414;2024-03-23T02:45:11;9.30;;;3.07;;
3052;SDS011;1536;51.098;6.414;2024-03-23T02:47:38;8.57;;;3.15;;
3052;SDS011;1536;51.098;6.414;2024-03-23T02:50:04;11.17;;;4.03;;
3052;SDS011;1536;51.098;6.414;2024-03-23T02:52:32;6.07;;;3.00;;
3052;SDS011;1536;51.098;6.414;2024-03-23T02:54:58;6.77;;;2.97;;
3052;SDS011;1536;51.098;6.414;2024-03-23T02:57:28;10.05;;;2.78;;
3052;SDS011;1536;51.098;6.414;2024-03-23T02:59:54;8.13;;;3.30;;
3052;SDS011;1536;51.098;6.414;2024-03-23T03:02:21;7.25;;;3.80;;
3052;SDS011;1536;51.098;6.414;2024-03-23T03:04:47;6.77;;;3.70;;
3052;SDS011;1536;51.098;6.414;2024-03-23T03:07:14;7.03;;;2.80;;
3052;SDS011;1536;51.098;6.414;2024-03-23T03:09:40;6.20;;;2.60;;
3052;SDS011;1536;51.098;6.414;2024-03-23T03:12:07;8.82;;;2.70;;
3052;SDS011;1536;51.098;6.414;2024-03-23T03:14:34;7.25;;;2.70;;
3052;SDS011;1536;51.098;6.414;2024-03-23T03:17:01;4.55;;;2.97;;
3052;SDS011;1536;51.098;6.414;2024-03-23T03:19:27;9.70;;;2.90;;
3052;SDS011;1536;51.098;6.414;2024-03-23T03:21:54;10.95;;;3.40;;
3052;SDS011;1536;51.098;6.414;2024-03-23T03:24:20;9.83;;;3.60;;
3052;SDS011;1536;51.098;6.414;2024-03-23T03:26:46;4.78;;;2.35;;
3052;SDS011;1536;51.098;6.414;2024-03-23T03:29:12;4.17;;;3.13;;
3052;SDS011;1536;51.098;6.414;2024-03-23T03:31:41;9.88;;;3.20;;
3052;SDS011;1536;51.098;6.414;2024-03-23T03:34:07;10.15;;;2.72;;
3052;SDS011;1536;51.098;6.414;2024-03-23T03:36:34;5.32;;;3.00;;
3052;SDS011;1536;51.098;6.414;2024-03-23T03:38:59;10.00;;;3.03;;
3052;SDS011;1536;51.098;6.414;2024-03-23T03:41:28;8.00;;;2.90;;
3052;SDS011;1536;51.098;6.414;2024-03-23T03:43:54;11.83;;;2.53;;
3052;SDS011;1536;51.098;6.414;2024-03-23T03:46:21;11.95;;;3.35;;
3052;SDS011;1536;51.098;6.414;2024-03-23T03:48:49;2.78;;;2.38;;
3052;SDS011;1536;51.098;6.414;2024-03-23T03:51:16;11.18;;;3.15;;
3052;SDS011;1536;51.098;6.414;2024-03-23T03:53:41;7.17;;;3.33;;
3052;SDS011;1536;51.098;6.414;2024-03-23T03:56:08;9.43;;;3.50;;
3052;SDS011;1536;51.098;6.414;2024-03-23T03:58:34;7.53;;;3.27;;
3052;SDS011;1536;51.098;6.414;2024-03-23T04:01:01;8.43;;;4.22;;
3052;SDS011;1536;51.098;6.414;2024-03-23T04:03:26;11.37;;;3.77;;
3052;SDS011;1536;51.098;6.414;2024-03-23T04:05:55;9.75;;;3.80;;
3052;SDS011;1536;51.098;6.414;2024-03-23T04:08:21;7.35;;;3.58;;
3052;SDS011;1536;51.098;6.414;2024-03-23T04:10:48;12.80;;;3.90;;
3052;SDS011;1536;51.098;6.414;2024-03-23T04:13:14;9.33;;;3.23;;
3052;SDS011;1536;51.098;6.414;2024-03-23T04:15:41;11.38;;;3.70;;
3052;SDS011;1536;51.098;6.414;2024-03-23T04:18:07;10.75;;;4.18;;
3052;SDS011;1536;51.098;6.414;2024-03-23T04:20:34;8.27;;;4.50;;
3052;SDS011;1536;51.098;6.414;2024-03-23T04:23:01;8.48;;;3.70;;
3052;SDS011;1536;51.098;6.414;2024-03-23T04:25:28;7.85;;;4.22;;
3052;SDS011;1536;51.098;6.414;2024-03-23T04:27:54;7.63;;;3.80;;
3052;SDS011;1536;51.098;6.414;2024-03-23T04:30:21;8.85;;;3.88;;
3052;SDS011;1536;51.098;6.414;2024-03-23T04:32:50;15.25;;;4.25;;
3052;SDS011;1536;51.098;6.414;2024-03-23T04:35:16;5.95;;;3.40;;
3052;SDS011;1536;51.098;6.414;2024-03-23T04:37:42;11.13;;;4.60;;
3052;SDS011;1536;51.098;6.414;2024-03-23T04:40:11;14.82;;;4.07;;
3052;SDS011;1536;51.098;6.414;2024-03-23T04:42:38;10.52;;;3.60;;
3052;SDS011;1536;51.098;6.414;2024-03-23T04:45:05;6.10;;;2.90;;
3052;SDS011;1536;51.098;6.414;2024-03-23T04:47:32;13.85;;;5.20;;
3052;SDS011;1536;51.098;6.414;2024-03-23T04:50:01;7.70;;;4.40;;
3052;SDS011;1536;51.098;6.414;2024-03-23T04:52:28;11.57;;;4.80;;
3052;SDS011;1536;51.098;6.414;2024-03-23T04:54:55;9.75;;;3.65;;
3052;SDS011;1536;51.098;6.414;2024-03-23T04:57:23;10.20;;;3.42;;
3052;SDS011;1536;51.098;6.414;2024-03-23T04:59:50;12.25;;;3.53;;
3052;SDS011;1536;51.098;6.414;2024-03-23T05:02:16;11.30;;;3.70;;
3052;SDS011;1536;51.098;6.414;2024-03-23T05:04:43;12.50;;;2.92;;
3052;SDS011;1536;51.098;6.414;2024-03-23T05:07:09;14.70;;;4.53;;
3052;SDS011;1536;51.098;6.414;2024-03-23T05:09:36;11.73;;;3.60;;
3052;SDS011;1536;51.098;6.414;2024-03-23T05:12:02;13.60;;;3.40;;
3052;SDS011;1536;51.098;6.414;2024-03-23T05:14:30;8.07;;;3.08;;
3052;SDS011;1536;51.098;6.414;2024-03-23T05:16:56;6.18;;;4.15;;
3052;SDS011;1536;51.098;6.414;2024-03-23T05:19:23;7.47;;;3.92;;
3052;SDS011;1536;51.098;6.414;2024-03-23T05:21:49;9.27;;;3.93;;
3052;SDS011;1536;51.098;6.414;2024-03-23T05:24:15;16.92;;;6.63;;
3052;SDS011;1536;51.098;6.414;2024-03-23T05:26:41;9.17;;;4.40;;
3052;SDS011;1536;51.098;6.414;2024-03-23T05:29:08;15.98;;;4.22;;
3052;SDS011;1536;51.098;6.414;2024-03-23T05:31:39;11.05;;;3.70;;
3052;SDS011;1536;51.098;6.414;2024-03-23T05:34:08;10.07;;;3.90;;
3052;SDS011;1536;51.098;6.414;2024-03-23T05:36:34;6.63;;;3.72;;
3052;SDS011;1536;51.098;6.414;2024-03-23T05:39:01;14.15;;;4.75;;
3052;SDS011;1536;51.098;6.414;2024-03-23T05:41:27;10.13;;;5.20;;
3052;SDS011;1536;51.098;6.414;2024-03-23T05:43:54;9.10;;;4.15;;
3052;SDS011;1536;51.098;6.414;2024-03-23T05:46:19;13.43;;;4.50;;
3052;SDS011;1536;51.098;6.414;2024-03-23T05:48:48;9.98;;;4.13;;
3052;SDS011;1536;51.098;6.414;2024-03-23T05:51:15;8.20;;;3.65;;
3052;SDS011;1536;51.098;6.414;2024-03-23T05:53:42;9.35;;;4.32;;
3052;SDS011;1536;51.098;6.414;2024-03-23T05:56:08;11.33;;;4.20;;
3052;SDS011;1536;51.098;6.414;2024-03-23T05:58:35;11.35;;;4.18;;
3052;SDS011;1536;51.098;6.414;2024-03-23T06:01:01;7.60;;;4.20;;
3052;SDS011;1536;51.098;6.414;2024-03-23T06:03:28;8.93;;;3.38;;
3052;SDS011;1536;51.098;6.414;2024-03-23T06:05:57;6.78;;;3.95;;
3052;SDS011;1536;51.098;6.414;2024-03-23T06:08:23;7.40;;;4.40;;
3052;SDS011;1536;51.098;6.414;2024-03-23T06:10:50;16.77;;;4.93;;
3052;SDS011;1536;51.098;6.414;2024-03-23T06:13:16;13.07;;;4.57;;
3052;SDS011;1536;51.098;6.414;2024-03-23T06:15:43;9.95;;;4.95;;
3052;SDS011;1536;51.098;6.414;2024-03-23T06:18:11;8.13;;;4.10;;
3052;SDS011;1536;51.098;6.414;2024-03-23T06:20:38;11.38;;;4.97;;
3052;SDS011;1536;51.098;6.414;2024-03-23T06:23:05;14.68;;;5.30;;
3052;SDS011;1536;51.098;6.414;2024-03-23T06:25:32;14.30;;;4.93;;
3052;SDS011;1536;51.098;6.414;2024-03-23T06:27:58;13.30;;;4.10;;
3052;SDS011;1536;51.098;6.414;2024-03-23T06:30:26;12.95;;;4.43;;
3052;SDS011;1536;51.098;6.414;2024-03-23T06:32:52;6.47;;;4.13;;
3052;SDS011;1536;51.098;6.414;2024-03-23T06:35:19;11.30;;;4.65;;
3052;SDS011;1536;51.098;6.414;2024-03-23T06:37:45;11.43;;;4.17;;
3052;SDS011;1536;51.098;6.414;2024-03-23T06:40:14;11.50;;;4.72;;
3052;SDS011;1536;51.098;6.414;2024-03-23T06:42:40;11.50;;;6.72;;
3052;SDS011;1536;51.098;6.414;2024-03-23T06:45:07;12.05;;;4.72;;
3052;SDS011;1536;51.098;6.414;2024-03-23T06:47:33;16.95;;;5.85;;
3052;SDS011;1536;51.098;6.414;2024-03-23T06:50:02;9.38;;;4.95;;
3052;SDS011;1536;51.098;6.414;2024-03-23T06:52:28;17.80;;;6.38;;
3052;SDS011;1536;51.098;6.414;2024-03-23T06:54:55;12.73;;;6.30;;
3052;SDS011;1536;51.098;6.414;2024-03-23T06:57:23;15.55;;;6.75;;
3052;SDS011;1536;51.098;6.414;2024-03-23T06:59:50;13.02;;;7.57;;
3052;SDS011;1536;51.098;6.414;2024-03-23T07:02:16;16.47;;;8.00;;
3052;SDS011;1536;51.098;6.414;2024-03-23T07:04:43;17.13;;;7.78;;
3052;SDS011;1536;51.098;6.414;2024-03-23T07:07:09;13.30;;;7.50;;
3052;SDS011;1536;51.098;6.414;2024-03-23T07:09:36;16.38;;;7.85;;
3052;SDS011;1536;51.098;6.414;2024-03-23T07:12:03;12.40;;;8.18;;
3052;SDS011;1536;51.098;6.414;2024-03-23T07:14:31;12.50;;;7.28;;
3052;SDS011;1536;51.098;6.414;2024-03-23T07:16:57;14.70;;;7.50;;
3052;SDS011;1536;51.098;6.414;2024-03-23T07:19:24;15.27;;;8.38;;
3052;SDS011;1536;51.098;6.414;2024-03-23T07:21:53;16.50;;;8.83;;
3052;SDS011;1536;51.098;6.414;2024-03-23T07:24:35;14.93;;;8.18;;
3052;SDS011;1536;51.098;6.414;2024-03-23T07:27:04;10.88;;;8.35;;
3052;SDS011;1536;51.098;6.414;2024-03-23T07:29:31;13.35;;;8.38;;
3052;SDS011;1536;51.098;6.414;2024-03-23T07:31:58;15.27;;;7.53;;
3052;SDS011;1536;51.098;6.414;2024-03-23T07:34:24;17.77;;;8.47;;
3052;SDS011;1536;51.098;6.414;2024-03-23T07:36:51;14.55;;;6.15;;
3052;SDS011;1536;51.098;6.414;2024-03-23T07:39:17;14.30;;;7.27;;
3052;SDS011;1536;51.098;6.414;2024-03-23T07:41:44;19.13;;;6.57;;
3052;SDS011;1536;51.098;6.414;2024-03-23T07:44:10;16.03;;;6.50;;
3052;SDS011;1536;51.098;6.414;2024-03-23T07:46:38;7.97;;;4.68;;
3052;SDS011;1536;51.098;6.414;2024-03-23T07:49:04;14.80;;;5.10;;
3052;SDS011;1536;51.098;6.414;2024-03-23T07:51:31;9.35;;;5.85;;
3052;SDS011;1536;51.098;6.414;2024-03-23T07:53:57;9.25;;;4.53;;
3052;SDS011;1536;51.098;6.414;2024-03-23T07:56:24;6.85;;;3.70;;
3052;SDS011;1536;51.098;6.414;2024-03-23T07:58:50;15.60;;;4.90;;
3052;SDS011;1536;51.098;6.414;2024-03-23T08:01:17;8.13;;;3.10;;
3052;SDS011;1536;51.098;6.414;2024-03-23T08:03:44;5.53;;;3.23;;
3052;SDS011;1536;51.098;6.414;2024-03-23T08:06:12;13.88;;;4.00;;
3052;SDS011;1536;51.098;6.414;2024-03-23T08:08:39;12.95;;;3.88;;
3052;SDS011;1536;51.098;6.414;2024-03-23T08:11:08;10.48;;;4.47;;
3052;SDS011;1536;51.098;6.414;2024-03-23T08:13:34;13.88;;;4.80;;
3052;SDS011;1536;51.098;6.414;2024-03-23T08:16:02;11.15;;;4.43;;
3052;SDS011;1536;51.098;6.414;2024-03-23T08:18:29;10.65;;;4.53;;
3052;SDS011;1536;51.098;6.414;2024-03-23T08:20:58;9.40;;;4.25;;
3052;SDS011;1536;51.098;6.414;2024-03-23T08:23:24;11.13;;;4.93;;
3052;SDS011;1536;51.098;6.414;2024-03-23T08:25:51;10.98;;;4.97;;
3052;SDS011;1536;51.098;6.414;2024-03-23T08:28:17;16.23;;;4.85;;
3052;SDS011;1536;51.098;6.414;2024-03-23T08:30:44;14.40;;;4.80;;
3052;SDS011;1536;51.098;6.414;2024-03-23T08:33:10;6.60;;;4.80;;
3052;SDS011;1536;51.098;6.414;2024-03-23T08:35:36;14.23;;;6.47;;
3052;SDS011;1536;51.098;6.414;2024-03-23T08:38:05;12.65;;;5.25;;
3052;SDS011;1536;51.098;6.414;2024-03-23T08:40:32;25.55;;;6.53;;
3052;SDS011;1536;51.098;6.414;2024-03-23T08:42:58;15.50;;;5.57;;
3052;SDS011;1536;51.098;6.414;2024-03-23T08:45:25;8.30;;;5.28;;
3052;SDS011;1536;51.098;6.414;2024-03-23T08:47:50;10.90;;;5.50;;
3052;SDS011;1536;51.098;6.414;2024-03-23T08:50:17;16.15;;;6.75;;
3052;SDS011;1536;51.098;6.414;2024-03-23T08:52:43;13.07;;;5.23;;
3052;SDS011;1536;51.098;6.414;2024-03-23T08:55:12;11.20;;;5.50;;
3052;SDS011;1536;51.098;6.414;2024-03-23T08:57:38;8.02;;;5.78;;
3052;SDS011;1536;51.098;6.414;2024-03-23T09:00:06;8.27;;;4.63;;
3052;SDS011;1536;51.098;6.414;2024-03-23T09:02:34;11.85;;;5.65;;
3052;SDS011;1536;51.098;6.414;2024-03-23T09:05:01;12.50;;;5.82;;
3052;SDS011;1536;51.098;6.414;2024-03-23T09:07:29;13.40;;;7.05;;
3052;SDS011;1536;51.098;6.414;2024-03-23T09:09:56;16.05;;;5.72;;
3052;SDS011;1536;51.098;6.414;2024-03-23T09:12:23;15.37;;;4.43;;
3052;SDS011;1536;51.098;6.414;2024-03-23T09:14:50;6.53;;;3.65;;
3052;SDS011;1536;51.098;6.414;2024-03-23T09:17:18;10.82;;;3.92;;
3052;SDS011;1536;51.098;6.414;2024-03-23T09:19:45;8.93;;;4.85;;
3052;SDS011;1536;51.098;6.414;2024-03-23T09:22:11;9.57;;;3.63;;
3052;SDS011;1536;51.098;6.414;2024-03-23T09:24:38;4.32;;;2.78;;
3052;SDS011;1536;51.098;6.414;2024-03-23T09:27:04;11.63;;;3.90;;
3052;SDS011;1536;51.098;6.414;2024-03-23T09:29:32;7.10;;;2.60;;
3052;SDS011;1536;51.098;6.414;2024-03-23T09:31:58;12.30;;;3.37;;
3052;SDS011;1536;51.098;6.414;2024-03-23T09:34:25;6.32;;;3.22;;
3052;SDS011;1536;51.098;6.414;2024-03-23T09:36:51;9.60;;;3.70;;
3052;SDS011;1536;51.098;6.414;2024-03-23T09:39:18;16.52;;;3.60;;
3052;SDS011;1536;51.098;6.414;2024-03-23T09:41:44;8.07;;;2.95;;
3052;SDS011;1536;51.098;6.414;2024-03-23T09:44:11;7.40;;;3.20;;
3052;SDS011;1536;51.098;6.414;2024-03-23T09:46:38;8.23;;;2.90;;
3052;SDS011;1536;51.098;6.414;2024-03-23T09:49:06;14.40;;;3.38;;
3052;SDS011;1536;51.098;6.414;2024-03-23T09:51:34;7.47;;;2.72;;
3052;SDS011;1536;51.098;6.414;2024-03-23T09:54:02;6.47;;;2.65;;
3052;SDS011;1536;51.098;6.414;2024-03-23T09:56:28;6.45;;;2.50;;
3052;SDS011;1536;51.098;6.414;2024-03-23T09:59:00;10.85;;;3.00;;
3052;SDS011;1536;51.098;6.414;2024-03-23T10:01:26;7.13;;;2.63;;
3052;SDS011;1536;51.098;6.414;2024-03-23T10:03:54;6.40;;;2.50;;
3052;SDS011;1536;51.098;6.414;2024-03-23T10:06:21;7.07;;;2.90;;
3052;SDS011;1536;51.098;6.414;2024-03-23T10:08:49;7.43;;;2.90;;
3052;SDS011;1536;51.098;6.414;2024-03-23T10:11:16;9.20;;;2.25;;
3052;SDS011;1536;51.098;6.414;2024-03-23T10:13:43;6.32;;;2.45;;
3052;SDS011;1536;51.098;6.414;2024-03-23T10:16:11;4.50;;;2.42;;
3052;SDS011;1536;51.098;6.414;2024-03-23T10:18:46;6.05;;;2.42;;
3052;SDS011;1536;51.098;6.414;2024-03-23T10:21:14;9.07;;;3.30;;
3052;SDS011;1536;51.098;6.414;2024-03-23T10:23:42;4.22;;;2.60;;
3052;SDS011;1536;51.098;6.414;2024-03-23T10:26:12;6.57;;;3.60;;
3052;SDS011;1536;51.098;6.414;2024-03-23T10:28:55;12.80;;;4.07;;
3052;SDS011;1536;51.098;6.414;2024-03-23T10:31:23;4.93;;;3.38;;
3052;SDS011;1536;51.098;6.414;2024-03-23T10:33:50;11.03;;;4.20;;
3052;SDS011;1536;51.098;6.414;2024-03-23T10:36:20;4.38;;;1.90;;
3052;SDS011;1536;51.098;6.414;2024-03-23T10:38:47;4.95;;;2.00;;
3052;SDS011;1536;51.098;6.414;2024-03-23T10:41:15;3.25;;;1.70;;
3052;SDS011;1536;51.098;6.414;2024-03-23T10:43:42;2.38;;;1.80;;
3052;SDS011;1536;51.098;6.414;2024-03-23T10:46:09;2.72;;;1.92;;
3052;SDS011;1536;51.098;6.414;2024-03-23T10:48:36;3.88;;;2.13;;
3052;SDS011;1536;51.098;6.414;2024-03-23T10:51:03;3.47;;;1.80;;
3052;SDS011;1536;51.098;6.414;2024-03-23T10:53:32;5.35;;;2.28;;
3052;SDS011;1536;51.098;6.414;2024-03-23T10:55:59;2.60;;;2.00;;
3052;SDS011;1536;51.098;6.414;2024-03-23T10:58:27;3.63;;;1.75;;
3052;SDS011;1536;51.098;6.414;2024-03-23T11:00:56;2.80;;;1.67;;
3052;SDS011;1536;51.098;6.414;2024-03-23T11:03:30;2.20;;;1.40;;
3052;SDS011;1536;51.098;6.414;2024-03-23T11:06:00;6.60;;;1.70;;
3052;SDS011;1536;51.098;6.414;2024-03-23T11:08:32;5.97;;;1.98;;
3052;SDS011;1536;51.098;6.414;2024-03-23T11:11:12;5.53;;;2.03;;
3052;SDS011;1536;51.098;6.414;2024-03-23T11:13:40;6.53;;;2.13;;
3052;SDS011;1536;51.098;6.414;2024-03-23T11:16:12;3.63;;;2.63;;
3052;SDS011;1536;51.098;6.414;2024-03-23T11:18:40;3.80;;;3.15;;
3052;SDS011;1536;51.098;6.414;2024-03-23T11:21:07;5.30;;;2.17;;
3052;SDS011;1536;51.098;6.414;2024-03-23T11:23:35;3.33;;;2.17;;
3052;SDS011;1536;51.098;6.414;2024-03-23T11:26:01;6.70;;;2.83;;
3052;SDS011;1536;51.098;6.414;2024-03-23T11:28:29;7.88;;;2.47;;
3052;SDS011;1536;51.098;6.414;2024-03-23T11:30:55;3.67;;;2.05;;
3052;SDS011;1536;51.098;6.414;2024-03-23T11:33:22;5.65;;;2.55;;
3052;SDS011;1536;51.098;6.414;2024-03-23T11:35:48;10.68;;;2.90;;
3052;SDS011;1536;51.098;6.414;2024-03-23T11:38:17;2.83;;;1.90;;
3052;SDS011;1536;51.098;6.414;2024-03-23T11:40:45;4.22;;;1.50;;
3052;SDS011;1536;51.098;6.414;2024-03-23T11:43:13;2.58;;;1.50;;
3052;SDS011;1536;51.098;6.414;2024-03-23T11:45:42;4.45;;;1.98;;
3052;SDS011;1536;51.098;6.414;2024-03-23T11:48:10;3.88;;;2.05;;
3052;SDS011;1536;51.098;6.414;2024-03-23T11:50:37;5.10;;;2.22;;
3052;SDS011;1536;51.098;6.414;2024-03-23T11:53:13;5.05;;;2.22;;
3052;SDS011;1536;51.098;6.414;2024-03-23T11:55:41;5.68;;;2.45;;
3052;SDS011;1536;51.098;6.414;2024-03-23T11:58:14;5.07;;;2.38;;
3052;SDS011;1536;51.098;6.414;2024-03-23T12:00:41;6.18;;;2.15;;
3052;SDS011;1536;51.098;6.414;2024-03-23T12:03:08;6.60;;;1.80;;
3052;SDS011;1536;51.098;6.414;2024-03-23T12:05:35;3.40;;;1.45;;
3052;SDS011;1536;51.098;6.414;2024-03-23T12:08:22;1.52;;;1.42;;
3052;SDS011;1536;51.098;6.414;2024-03-23T12:10:52;2.17;;;1.48;;
3052;SDS011;1536;51.098;6.414;2024-03-23T12:13:19;1.50;;;1.40;;
3052;SDS011;1536;51.098;6.414;2024-03-23T12:15:47;2.10;;;1.50;;
3052;SDS011;1536;51.098;6.414;2024-03-23T12:18:14;2.05;;;1.33;;
3052;SDS011;1536;51.098;6.414;2024-03-23T12:20:41;1.40;;;1.30;;
3052;SDS011;1536;51.098;6.414;2024-03-23T12:23:08;3.73;;;1.60;;
3052;SDS011;1536;51.098;6.414;2024-03-23T12:25:36;2.25;;;1.40;;
3052;SDS011;1536;51.098;6.414;2024-03-23T12:28:04;2.10;;;1.90;;
3052;SDS011;1536;51.098;6.414;2024-03-23T12:30:32;3.80;;;1.90;;
3052;SDS011;1536;51.098;6.414;2024-03-23T12:32:59;1.40;;;1.30;;
3052;SDS011;1536;51.098;6.414;2024-03-23T12:35:26;4.30;;;1.70;;
3052;SDS011;1536;51.098;6.414;2024-03-23T12:37:51;2.87;;;1.77;;
3052;SDS011;1536;51.098;6.414;2024-03-23T12:40:18;3.75;;;1.90;;
3052;SDS011;1536;51.098;6.414;2024-03-23T12:42:44;2.33;;;1.50;;
3052;SDS011;1536;51.098;6.414;2024-03-23T12:45:12;1.88;;;1.52;;
3052;SDS011;1536;51.098;6.414;2024-03-23T12:47:38;3.30;;;2.30;;
3052;SDS011;1536;51.098;6.414;2024-03-23T12:50:05;6.72;;;2.63;;
3052;SDS011;1536;51.098;6.414;2024-03-23T12:52:32;2.72;;;2.53;;
3052;SDS011;1536;51.098;6.414;2024-03-23T12:54:58;2.63;;;1.95;;
3052;SDS011;1536;51.098;6.414;2024-03-23T12:57:24;2.60;;;1.93;;
3052;SDS011;1536;51.098;6.414;2024-03-23T12:59:52;2.35;;;1.73;;
3052;SDS011;1536;51.098;6.414;2024-03-23T13:02:20;2.88;;;2.50;;
3052;SDS011;1536;51.098;6.414;2024-03-23T13:04:49;3.50;;;2.47;;
3052;SDS011;1536;51.098;6.414;2024-03-23T13:07:16;6.28;;;3.35;;
3052;SDS011;1536;51.098;6.414;2024-03-23T13:09:43;9.88;;;3.33;;
3052;SDS011;1536;51.098;6.414;2024-03-23T13:12:09;5.50;;;3.00;;
3052;SDS011;1536;51.098;6.414;2024-03-23T13:14:37;7.30;;;3.20;;
3052;SDS011;1536;51.098;6.414;2024-03-23T13:17:03;3.25;;;2.85;;
3052;SDS011;1536;51.098;6.414;2024-03-23T13:19:32;7.35;;;2.92;;
3052;SDS011;1536;51.098;6.414;2024-03-23T13:21:58;4.57;;;2.80;;
3052;SDS011;1536;51.098;6.414;2024-03-23T13:24:26;4.15;;;2.38;;
3052;SDS011;1536;51.098;6.414;2024-03-23T13:26:52;5.43;;;2.47;;
3052;SDS011;1536;51.098;6.414;2024-03-23T13:29:20;3.92;;;1.98;;
3052;SDS011;1536;51.098;6.414;2024-03-23T13:31:47;5.22;;;2.58;;
3052;SDS011;1536;51.098;6.414;2024-03-23T13:34:15;4.75;;;2.63;;
3052;SDS011;1536;51.098;6.414;2024-03-23T13:36:43;3.00;;;2.03;;
3052;SDS011;1536;51.098;6.414;2024-03-23T13:39:10;2.20;;;2.00;;
3052;SDS011;1536;51.098;6.414;2024-03-23T13:41:37;7.22;;;2.28;;
3052;SDS011;1536;51.098;6.414;2024-03-23T13:44:05;3.45;;;1.40;;
3052;SDS011;1536;51.098;6.414;2024-03-23T13:46:31;2.15;;;1.85;;
3052;SDS011;1536;51.098;6.414;2024-03-23T13:48:58;4.20;;;2.03;;
3052;SDS011;1536;51.098;6.414;2024-03-23T13:51:24;8.15;;;2.20;;
3052;SDS011;1536;51.098;6.414;2024-03-23T13:53:53;4.72;;;2.03;;
3052;SDS011;1536;51.098;6.414;2024-03-23T13:56:21;3.90;;;1.50;;
3052;SDS011;1536;51.098;6.414;2024-03-23T13:58:47;4.53;;;2.03;;
3052;SDS011;1536;51.098;6.414;2024-03-23T14:01:14;2.28;;;1.98;;
3052;SDS011;1536;51.098;6.414;2024-03-23T14:03:40;5.53;;;2.15;;
3052;SDS011;1536;51.098;6.414;2024-03-23T14:06:07;5.25;;;2.40;;
3052;SDS011;1536;51.098;6.414;2024-03-23T14:08:33;5.77;;;1.90;;
3052;SDS011;1536;51.098;6.414;2024-03-23T14:11:02;2.40;;;2.20;;
3052;SDS011;1536;51.098;6.414;2024-03-23T14:13:29;1.90;;;1.70;;
3052;SDS011;1536;51.098;6.414;2024-03-23T14:15:56;2.38;;;1.50;;
3052;SDS011;1536;51.098;6.414;2024-03-23T14:18:22;4.00;;;1.60;;
3052;SDS011;1536;51.098;6.414;2024-03-23T14:20:49;1.75;;;1.55;;
3052;SDS011;1536;51.098;6.414;2024-03-23T14:23:15;1.60;;;1.50;;
3052;SDS011;1536;51.098;6.414;2024-03-23T14:25:42;2.35;;;2.03;;
3052;SDS011;1536;51.098;6.414;2024-03-23T14:28:09;1.73;;;1.30;;
3052;SDS011;1536;51.098;6.414;2024-03-23T14:30:39;3.10;;;1.40;;
3052;SDS011;1536;51.098;6.414;2024-03-23T14:33:05;3.75;;;1.77;;
3052;SDS011;1536;51.098;6.414;2024-03-23T14:35:32;1.45;;;1.23;;
3052;SDS011;1536;51.098;6.414;2024-03-23T14:37:58;1.93;;;1.60;;
3052;SDS011;1536;51.098;6.414;2024-03-23T14:40:25;1.85;;;1.40;;
3052;SDS011;1536;51.098;6.414;2024-03-23T14:42:52;1.30;;;1.20;;
3052;SDS011;1536;51.098;6.414;2024-03-23T14:45:21;2.40;;;1.40;;
3052;SDS011;1536;51.098;6.414;2024-03-23T14:47:48;1.40;;;1.30;;
3052;SDS011;1536;51.098;6.414;2024-03-23T14:50:15;1.63;;;1.52;;
3052;SDS011;1536;51.098;6.414;2024-03-23T14:52:42;3.90;;;1.90;;
3052;SDS011;1536;51.098;6.414;2024-03-23T14:55:10;2.08;;;1.88;;
3052;SDS011;1536;51.098;6.414;2024-03-23T14:57:36;4.78;;;2.22;;
3052;SDS011;1536;51.098;6.414;2024-03-23T15:00:04;2.78;;;1.85;;
3052;SDS011;1536;51.098;6.414;2024-03-23T15:02:34;2.28;;;2.05;;
3052;SDS011;1536;51.098;6.414;2024-03-23T15:05:00;1.90;;;1.80;;
3052;SDS011;1536;51.098;6.414;2024-03-23T15:07:28;1.90;;;1.70;;
3052;SDS011;1536;51.098;6.414;2024-03-23T15:09:55;3.00;;;1.55;;
3052;SDS011;1536;51.098;6.414;2024-03-23T15:12:21;1.77;;;1.30;;
3052;SDS011;1536;51.098;6.414;2024-03-23T15:14:48;1.80;;;1.20;;
3052;SDS011;1536;51.098;6.414;2024-03-23T15:17:14;2.50;;;1.20;;
3052;SDS011;1536;51.098;6.414;2024-03-23T15:19:42;6.63;;;1.30;;
3052;SDS011;1536;51.098;6.414;2024-03-23T15:22:08;1.50;;;1.17;;
3052;SDS011;1536;51.098;6.414;2024-03-23T15:24:35;5.50;;;1.50;;
3052;SDS011;1536;51.098;6.414;2024-03-23T15:27:01;4.53;;;2.30;;
3052;SDS011;1536;51.098;6.414;2024-03-23T15:29:28;5.75;;;2.58;;
3052;SDS011;1536;51.098;6.414;2024-03-23T15:31:54;4.37;;;2.30;;
3052;SDS011;1536;51.098;6.414;2024-03-23T15:34:21;2.05;;;1.83;;
3052;SDS011;1536;51.098;6.414;2024-03-23T15:36:49;4.82;;;2.20;;
3052;SDS011;1536;51.098;6.414;2024-03-23T15:39:16;4.43;;;1.80;;
3052;SDS011;1536;51.098;6.414;2024-03-23T15:41:43;4.20;;;2.20;;
3052;SDS011;1536;51.098;6.414;2024-03-23T15:44:11;5.10;;;2.50;;
3052;SDS011;1536;51.098;6.414;2024-03-23T15:46:37;6.15;;;2.78;;
3052;SDS011;1536;51.098;6.414;2024-03-23T15:49:04;2.25;;;1.70;;
3052;SDS011;1536;51.098;6.414;2024-03-23T15:51:30;3.80;;;2.00;;
3052;SDS011;1536;51.098;6.414;2024-03-23T15:53:59;4.07;;;2.63;;
3052;SDS011;1536;51.098;6.414;2024-03-23T15:56:25;3.92;;;2.35;;
3052;SDS011;1536;51.098;6.414;2024-03-23T15:58:52;2.47;;;2.05;;
3052;SDS011;1536;51.098;6.414;2024-03-23T16:01:18;3.63;;;2.20;;
3052;SDS011;1536;51.098;6.414;2024-03-23T16:03:45;5.68;;;2.25;;